EWG7CL ENBR-EDDH
Flight info
| Callsign | EWG7CL |
|---|---|
| Flight time | N/A |
| Altitude | 39000 |
| Route | TUXIL DCT ZOL DCT RAMUD DCT ALASA M852 EKERN/N0386F230 T905 BOGMU BOGMU3N |
| Aircraft | A320/M-SDE3FGHIRWY/LB1 |
Departure
| Time | 2026-05-06 18:12 |
|---|---|
| Airport | Bergen Airport, Flesland (ENBR) |
Arrival
| Time | N/A |
|---|---|
| Airport | Hamburg Helmut Schmidt Airport (EDDH) |
| Time | Latitude | Longitude | Altitude | Speed | Heading |
|---|---|---|---|---|---|
| 2026-05-06 17:36 | 60.28932 | 5.22547 | 175 ft | 0 kts | 108° |
| 2026-05-06 18:03 | 60.28936 | 5.22518 | 175 ft | 4 kts | 109° |
| 2026-05-06 18:03 | 60.28945 | 5.22468 | 175 ft | 3 kts | 109° |
| 2026-05-06 18:03 | 60.28953 | 5.22428 | 175 ft | 4 kts | 109° |
| 2026-05-06 18:04 | 60.28954 | 5.22397 | 175 ft | 4 kts | 20° |
| 2026-05-06 18:04 | 60.28930 | 5.22395 | 175 ft | 4 kts | 351° |
| 2026-05-06 18:04 | 60.28906 | 5.22404 | 175 ft | 2 kts | 349° |
| 2026-05-06 18:04 | 60.28905 | 5.22404 | 175 ft | 0 kts | 349° |
| 2026-05-06 18:06 | 60.28917 | 5.22399 | 175 ft | 6 kts | 349° |
| 2026-05-06 18:07 | 60.28949 | 5.22388 | 175 ft | 4 kts | 351° |
| 2026-05-06 18:07 | 60.28984 | 5.22377 | 175 ft | 5 kts | 351° |
| 2026-05-06 18:07 | 60.29025 | 5.22364 | 176 ft | 7 kts | 351° |
| 2026-05-06 18:07 | 60.29074 | 5.22336 | 177 ft | 9 kts | 325° |
| 2026-05-06 18:08 | 60.29095 | 5.22229 | 175 ft | 9 kts | 326° |
| 2026-05-06 18:08 | 60.29207 | 5.22184 | 169 ft | 22 kts | 350° |
| 2026-05-06 18:08 | 60.29351 | 5.22132 | 162 ft | 23 kts | 349° |
| 2026-05-06 18:08 | 60.29520 | 5.22076 | 156 ft | 27 kts | 350° |
| 2026-05-06 18:09 | 60.29714 | 5.22010 | 149 ft | 30 kts | 350° |
| 2026-05-06 18:09 | 60.29917 | 5.21941 | 155 ft | 29 kts | 351° |
| 2026-05-06 18:09 | 60.30113 | 5.21875 | 163 ft | 28 kts | 350° |
| 2026-05-06 18:09 | 60.30298 | 5.21815 | 171 ft | 25 kts | 350° |
| 2026-05-06 18:10 | 60.30466 | 5.21754 | 179 ft | 24 kts | 350° |
| 2026-05-06 18:10 | 60.30612 | 5.21709 | 192 ft | 15 kts | 349° |
| 2026-05-06 18:10 | 60.30656 | 5.21547 | 179 ft | 16 kts | 257° |
| 2026-05-06 18:10 | 60.30590 | 5.21393 | 177 ft | 17 kts | 170° |
| 2026-05-06 18:11 | 60.30564 | 5.21404 | 177 ft | 0 kts | 169° |
| 2026-05-06 18:11 | 60.30303 | 5.21492 | 170 ft | 78 kts | 171° |
| 2026-05-06 18:11 | 60.29537 | 5.21750 | 149 ft | 141 kts | 170° |
| 2026-05-06 18:12 | 60.28479 | 5.22102 | 553 ft | 156 kts | 172° |
| 2026-05-06 18:12 | 60.27407 | 5.22469 | 1318 ft | 157 kts | 173° |
| 2026-05-06 18:12 | 60.26281 | 5.22848 | 1834 ft | 172 kts | 173° |
| 2026-05-06 18:12 | 60.25028 | 5.23259 | 2197 ft | 195 kts | 173° |
| 2026-05-06 18:13 | 60.23604 | 5.23722 | 2555 ft | 220 kts | 173° |
| 2026-05-06 18:13 | 60.22009 | 5.24241 | 3016 ft | 244 kts | 173° |
| 2026-05-06 18:13 | 60.20257 | 5.24816 | 3695 ft | 261 kts | 173° |
| 2026-05-06 18:13 | 60.18444 | 5.25423 | 4654 ft | 266 kts | 173° |
| 2026-05-06 18:14 | 60.16607 | 5.26044 | 5652 ft | 269 kts | 172° |
| 2026-05-06 18:14 | 60.14752 | 5.26671 | 6620 ft | 272 kts | 173° |
| 2026-05-06 18:14 | 60.12873 | 5.27303 | 7526 ft | 276 kts | 173° |
| 2026-05-06 18:14 | 60.10964 | 5.27942 | 8435 ft | 280 kts | 173° |
| 2026-05-06 18:15 | 60.09028 | 5.28584 | 9328 ft | 284 kts | 173° |
| 2026-05-06 18:15 | 60.07056 | 5.29167 | 10200 ft | 288 kts | 175° |
| 2026-05-06 18:15 | 60.05046 | 5.29699 | 10937 ft | 295 kts | 177° |
| 2026-05-06 18:15 | 60.02994 | 5.30223 | 11720 ft | 299 kts | 178° |
| 2026-05-06 18:16 | 60.00917 | 5.30759 | 12528 ft | 303 kts | 179° |
| 2026-05-06 18:16 | 59.98811 | 5.31310 | 13361 ft | 306 kts | 179° |
| 2026-05-06 18:16 | 59.96692 | 5.31867 | 14159 ft | 309 kts | 180° |
| 2026-05-06 18:16 | 59.94555 | 5.32433 | 14916 ft | 311 kts | 180° |
| 2026-05-06 18:17 | 59.92397 | 5.33005 | 15658 ft | 314 kts | 180° |
| 2026-05-06 18:17 | 59.90226 | 5.33583 | 16399 ft | 316 kts | 181° |
| 2026-05-06 18:17 | 59.88031 | 5.34164 | 16919 ft | 320 kts | 181° |
| 2026-05-06 18:17 | 59.85829 | 5.34749 | 17037 ft | 319 kts | 181° |
| 2026-05-06 18:18 | 59.83628 | 5.35335 | 17054 ft | 319 kts | 181° |
| 2026-05-06 18:18 | 59.81462 | 5.35914 | 17056 ft | 318 kts | 181° |
| 2026-05-06 18:18 | 59.79234 | 5.36489 | 17058 ft | 318 kts | 182° |
| 2026-05-06 18:18 | 59.77042 | 5.36933 | 17021 ft | 316 kts | 183° |
| 2026-05-06 18:19 | 59.74859 | 5.37286 | 17052 ft | 328 kts | 184° |
| 2026-05-06 18:19 | 59.72509 | 5.37608 | 17199 ft | 349 kts | 184° |
| 2026-05-06 18:19 | 59.70033 | 5.37951 | 17558 ft | 362 kts | 183° |
| 2026-05-06 18:19 | 59.67507 | 5.38334 | 18178 ft | 367 kts | 183° |
| 2026-05-06 18:20 | 59.64950 | 5.38748 | 18787 ft | 370 kts | 183° |
| 2026-05-06 18:20 | 59.62368 | 5.39260 | 19359 ft | 375 kts | 181° |
| 2026-05-06 18:20 | 59.59761 | 5.39900 | 19923 ft | 380 kts | 180° |
| 2026-05-06 18:20 | 59.57127 | 5.40609 | 20506 ft | 384 kts | 180° |
| 2026-05-06 18:21 | 59.54471 | 5.41344 | 21093 ft | 387 kts | 180° |
| 2026-05-06 18:21 | 59.51793 | 5.42074 | 21676 ft | 390 kts | 181° |
| 2026-05-06 18:21 | 59.49089 | 5.42791 | 22248 ft | 393 kts | 181° |
| 2026-05-06 18:21 | 59.46365 | 5.43492 | 22738 ft | 397 kts | 180° |
| 2026-05-06 18:22 | 59.43610 | 5.44182 | 23276 ft | 400 kts | 180° |
| 2026-05-06 18:22 | 59.40835 | 5.44873 | 23774 ft | 403 kts | 180° |
| 2026-05-06 18:22 | 59.38045 | 5.45656 | 24237 ft | 407 kts | 179° |
| 2026-05-06 18:22 | 59.35240 | 5.46610 | 24707 ft | 410 kts | 177° |
| 2026-05-06 18:23 | 59.32433 | 5.47669 | 25180 ft | 412 kts | 176° |
| 2026-05-06 18:23 | 59.29623 | 5.48769 | 25641 ft | 413 kts | 176° |
| 2026-05-06 18:23 | 59.26800 | 5.49868 | 26091 ft | 414 kts | 177° |
| 2026-05-06 18:23 | 59.23970 | 5.50940 | 26532 ft | 415 kts | 177° |
| 2026-05-06 18:24 | 59.21131 | 5.51989 | 26969 ft | 416 kts | 178° |
| 2026-05-06 18:24 | 59.18282 | 5.53022 | 27323 ft | 417 kts | 177° |
| 2026-05-06 18:24 | 59.15417 | 5.54045 | 27709 ft | 419 kts | 177° |
| 2026-05-06 18:24 | 59.12545 | 5.55068 | 28100 ft | 421 kts | 177° |
| 2026-05-06 18:25 | 59.09660 | 5.56100 | 28493 ft | 423 kts | 177° |
| 2026-05-06 18:25 | 59.06761 | 5.57142 | 28866 ft | 424 kts | 177° |
| 2026-05-06 18:25 | 59.03852 | 5.58187 | 29233 ft | 426 kts | 177° |
| 2026-05-06 18:25 | 59.00936 | 5.59229 | 29590 ft | 427 kts | 178° |
| 2026-05-06 18:26 | 58.98043 | 5.60262 | 29920 ft | 429 kts | 178° |
| 2026-05-06 18:26 | 58.95063 | 5.61323 | 30239 ft | 430 kts | 178° |
| 2026-05-06 18:26 | 58.92150 | 5.62356 | 30475 ft | 433 kts | 177° |
| 2026-05-06 18:26 | 58.89186 | 5.63576 | 30624 ft | 441 kts | 171° |
| 2026-05-06 18:27 | 58.86269 | 5.65638 | 30826 ft | 453 kts | 162° |
| 2026-05-06 18:27 | 58.83474 | 5.68596 | 31026 ft | 461 kts | 156° |
| 2026-05-06 18:27 | 58.80712 | 5.71785 | 31252 ft | 463 kts | 156° |
| 2026-05-06 18:27 | 58.77945 | 5.74965 | 31540 ft | 463 kts | 156° |
| 2026-05-06 18:28 | 58.75137 | 5.78176 | 31852 ft | 463 kts | 156° |
| 2026-05-06 18:28 | 58.72398 | 5.81296 | 32139 ft | 463 kts | 156° |
| 2026-05-06 18:28 | 58.69619 | 5.84451 | 32455 ft | 463 kts | 156° |
| 2026-05-06 18:28 | 58.66840 | 5.87597 | 32762 ft | 463 kts | 156° |
| 2026-05-06 18:29 | 58.64063 | 5.90737 | 33059 ft | 463 kts | 156° |
| 2026-05-06 18:29 | 58.61282 | 5.93873 | 33366 ft | 463 kts | 156° |
| 2026-05-06 18:29 | 58.58499 | 5.97008 | 33663 ft | 464 kts | 156° |
| 2026-05-06 18:29 | 58.55718 | 6.00136 | 33968 ft | 464 kts | 156° |
| 2026-05-06 18:30 | 58.52933 | 6.03258 | 34229 ft | 464 kts | 156° |
| 2026-05-06 18:30 | 58.50144 | 6.06374 | 34405 ft | 466 kts | 155° |
| 2026-05-06 18:30 | 58.47331 | 6.09513 | 34521 ft | 469 kts | 155° |
| 2026-05-06 18:30 | 58.44506 | 6.12667 | 34638 ft | 472 kts | 155° |
| 2026-05-06 18:31 | 58.41667 | 6.15832 | 34758 ft | 474 kts | 155° |
| 2026-05-06 18:31 | 58.38815 | 6.19003 | 34890 ft | 475 kts | 155° |
| 2026-05-06 18:31 | 58.35956 | 6.22177 | 35060 ft | 474 kts | 155° |
| 2026-05-06 18:31 | 58.33110 | 6.25345 | 35280 ft | 473 kts | 155° |
| 2026-05-06 18:32 | 58.30274 | 6.28494 | 35440 ft | 471 kts | 155° |
| 2026-05-06 18:32 | 58.27442 | 6.31627 | 35611 ft | 471 kts | 155° |
| 2026-05-06 18:32 | 58.24645 | 6.34705 | 35766 ft | 471 kts | 155° |
| 2026-05-06 18:32 | 58.21773 | 6.37855 | 35901 ft | 471 kts | 155° |
| 2026-05-06 18:33 | 58.18935 | 6.40963 | 36033 ft | 471 kts | 155° |
| 2026-05-06 18:33 | 58.16142 | 6.44021 | 36344 ft | 466 kts | 155° |
| 2026-05-06 18:33 | 58.13347 | 6.47080 | 36691 ft | 463 kts | 155° |
| 2026-05-06 18:33 | 58.10564 | 6.50124 | 36925 ft | 462 kts | 155° |
| 2026-05-06 18:34 | 58.04960 | 6.56229 | 37035 ft | 468 kts | 155° |
| 2026-05-06 18:34 | 57.99291 | 6.62361 | 37018 ft | 472 kts | 155° |
| 2026-05-06 18:35 | 57.93591 | 6.68513 | 37019 ft | 473 kts | 155° |
| 2026-05-06 18:35 | 57.87888 | 6.74664 | 37020 ft | 472 kts | 155° |
| 2026-05-06 18:36 | 57.82199 | 6.80783 | 37022 ft | 471 kts | 155° |
| 2026-05-06 18:36 | 57.76505 | 6.86883 | 37015 ft | 471 kts | 155° |
| 2026-05-06 18:37 | 57.70803 | 6.92950 | 37003 ft | 471 kts | 155° |
| 2026-05-06 18:37 | 57.65105 | 6.98989 | 37020 ft | 471 kts | 155° |
| 2026-05-06 18:38 | 57.59439 | 7.04968 | 37017 ft | 471 kts | 155° |
| 2026-05-06 18:38 | 57.53699 | 7.11017 | 37021 ft | 471 kts | 155° |
| 2026-05-06 18:39 | 57.48038 | 7.16972 | 37028 ft | 470 kts | 155° |
| 2026-05-06 18:40 | 57.39498 | 7.25899 | 37006 ft | 469 kts | 155° |
| 2026-05-06 18:40 | 57.33815 | 7.31807 | 37023 ft | 468 kts | 155° |
| 2026-05-06 18:41 | 57.28137 | 7.37690 | 37025 ft | 467 kts | 155° |
| 2026-05-06 18:41 | 57.22465 | 7.43556 | 37027 ft | 467 kts | 155° |
| 2026-05-06 18:42 | 57.16790 | 7.49401 | 37020 ft | 467 kts | 155° |
| 2026-05-06 18:42 | 57.11116 | 7.55215 | 37006 ft | 466 kts | 155° |
| 2026-05-06 18:43 | 57.05444 | 7.61001 | 37018 ft | 466 kts | 155° |
| 2026-05-06 18:43 | 56.99837 | 7.67041 | 37027 ft | 468 kts | 153° |
| 2026-05-06 18:44 | 56.94304 | 7.73370 | 37035 ft | 468 kts | 153° |
| 2026-05-06 18:44 | 56.88810 | 7.79626 | 37034 ft | 467 kts | 153° |
| 2026-05-06 18:45 | 56.83259 | 7.85787 | 37018 ft | 466 kts | 154° |
| 2026-05-06 18:45 | 56.77702 | 7.91876 | 37031 ft | 466 kts | 154° |
| 2026-05-06 18:46 | 56.72154 | 7.97966 | 37029 ft | 465 kts | 154° |
| 2026-05-06 18:46 | 56.66612 | 8.04038 | 37031 ft | 465 kts | 154° |
| 2026-05-06 18:47 | 56.61066 | 8.10096 | 37033 ft | 465 kts | 154° |
| 2026-05-06 18:47 | 56.55517 | 8.16130 | 36995 ft | 464 kts | 154° |
| 2026-05-06 18:48 | 56.49972 | 8.22128 | 37013 ft | 464 kts | 154° |
| 2026-05-06 18:48 | 56.44429 | 8.28117 | 37017 ft | 464 kts | 154° |
| 2026-05-06 18:49 | 56.38888 | 8.34088 | 37010 ft | 463 kts | 154° |
| 2026-05-06 18:49 | 56.33356 | 8.40045 | 37006 ft | 463 kts | 154° |
| 2026-05-06 18:50 | 56.27823 | 8.45980 | 36981 ft | 463 kts | 153° |
| 2026-05-06 18:50 | 56.22289 | 8.51882 | 36979 ft | 462 kts | 154° |
| 2026-05-06 18:51 | 56.16757 | 8.57738 | 36985 ft | 462 kts | 154° |